Huntington, New York
Current Conditions -  °F | °C
As of 12:53 AM on Wednesday 22 Oct 2014 (Local Time) from KFRG Reporting Station
Overcast Overcast  
Wind Chill: 14°   Ceiling: 7000
Heat Index: 14°   Visibility: 10mi
Dew Point: 13°   Wind: 7mph
Humidity: 90%   Direction: 60°ENE
Pressure: 29.9"   Gusts: NA
Location:  40.87°N, 73.42°W
Report Text: KFRG 220453Z AUTO 06006KT 10SM SCT050 BKN070 OVC110 14/13 A2990 RMK AO2 SLP123 T01440128 402000106
Loading
Personal Weather Stations






























Interactive Weather Map
Tropical Storm Tracking
New forecast layout! Learn more

10-Day Weather Forecast

Advertisements
Track Severe Weather on mobile